Greenwich Township, New Jersey
Current Conditions -  °F | °C
As of 1:54 AM on Sunday 26 Oct 2014 (Local Time) from KMIV Reporting Station
Broken Clouds Broken Clouds  
Wind Chill: 57°   Ceiling: 8500
Heat Index: 57°   Visibility: 10mi
Dew Point: 47°   Wind: 8mph
Humidity: 69%   Direction: 240°WSW
Pressure: 29.63"   Gusts: NA
Location:  39.386°N, 75.3403°W
Report Text: KMIV 260554Z AUTO 24007KT 10SM SCT060 BKN085 14/08 A2963 RMK AO2 SLP030 T01390083 10156 20133 56020
Loading
Personal Weather Stations






























Interactive Weather Map
Tropical Storm Tracking
New forecast layout! Learn more

10-Day Weather Forecast

Advertisements
Track Severe Weather on mobile